sensor_id;sensor_type;location;lat;lon;timestamp;P1;durP1;ratioP1;P2;durP2;ratioP2
8435;SDS011;4255;48.730;9.156;2023-04-02T00:01:43;1.65;;;1.20;;
8435;SDS011;4255;48.730;9.156;2023-04-02T00:04:16;1.43;;;1.33;;
8435;SDS011;4255;48.730;9.156;2023-04-02T00:06:47;1.70;;;1.60;;
8435;SDS011;4255;48.730;9.156;2023-04-02T00:09:22;1.25;;;1.25;;
8435;SDS011;4255;48.730;9.156;2023-04-02T00:11:52;1.63;;;1.40;;
8435;SDS011;4255;48.730;9.156;2023-04-02T00:16:51;1.52;;;1.52;;
8435;SDS011;4255;48.730;9.156;2023-04-02T00:19:19;1.60;;;1.50;;
8435;SDS011;4255;48.730;9.156;2023-04-02T00:22:03;1.40;;;1.30;;
8435;SDS011;4255;48.730;9.156;2023-04-02T00:24:33;1.40;;;1.30;;
8435;SDS011;4255;48.730;9.156;2023-04-02T00:26:59;1.60;;;1.50;;
8435;SDS011;4255;48.730;9.156;2023-04-02T00:29:24;1.60;;;1.50;;
8435;SDS011;4255;48.730;9.156;2023-04-02T00:31:51;2.10;;;1.40;;
8435;SDS011;4255;48.730;9.156;2023-04-02T00:36:46;1.52;;;1.42;;
8435;SDS011;4255;48.730;9.156;2023-04-02T00:39:23;1.45;;;1.30;;
8435;SDS011;4255;48.730;9.156;2023-04-02T00:41:55;1.70;;;1.30;;
8435;SDS011;4255;48.730;9.156;2023-04-02T00:44:31;1.55;;;1.45;;
8435;SDS011;4255;48.730;9.156;2023-04-02T00:47:06;1.30;;;1.20;;
8435;SDS011;4255;48.730;9.156;2023-04-02T00:49:42;1.10;;;1.10;;
8435;SDS011;4255;48.730;9.156;2023-04-02T00:52:12;2.73;;;1.50;;
8435;SDS011;4255;48.730;9.156;2023-04-02T00:55:23;1.40;;;1.40;;
8435;SDS011;4255;48.730;9.156;2023-04-02T00:57:37;1.55;;;1.45;;
8435;SDS011;4255;48.730;9.156;2023-04-02T01:02:40;1.38;;;1.33;;
8435;SDS011;4255;48.730;9.156;2023-04-02T01:07:56;1.63;;;1.52;;
8435;SDS011;4255;48.730;9.156;2023-04-02T01:10:44;1.70;;;1.60;;
8435;SDS011;4255;48.730;9.156;2023-04-02T01:16:27;1.30;;;1.20;;
8435;SDS011;4255;48.730;9.156;2023-04-02T01:21:56;1.67;;;1.55;;
8435;SDS011;4255;48.730;9.156;2023-04-02T01:24:42;1.50;;;1.40;;
8435;SDS011;4255;48.730;9.156;2023-04-02T01:27:21;1.48;;;1.30;;
8435;SDS011;4255;48.730;9.156;2023-04-02T01:29:53;1.70;;;1.60;;
8435;SDS011;4255;48.730;9.156;2023-04-02T01:32:21;1.30;;;1.20;;
8435;SDS011;4255;48.730;9.156;2023-04-02T01:34:50;1.30;;;1.20;;
8435;SDS011;4255;48.730;9.156;2023-04-02T01:43:22;1.05;;;1.05;;
8435;SDS011;4255;48.730;9.156;2023-04-02T01:48:56;1.25;;;1.25;;
8435;SDS011;4255;48.730;9.156;2023-04-02T01:51:29;1.45;;;1.30;;
8435;SDS011;4255;48.730;9.156;2023-04-02T01:53:57;1.40;;;1.30;;
8435;SDS011;4255;48.730;9.156;2023-04-02T01:56:26;1.30;;;1.30;;
8435;SDS011;4255;48.730;9.156;2023-04-02T01:58:52;2.10;;;1.40;;
8435;SDS011;4255;48.730;9.156;2023-04-02T02:01:19;1.40;;;1.30;;
8435;SDS011;4255;48.730;9.156;2023-04-02T02:03:48;1.20;;;1.08;;
8435;SDS011;4255;48.730;9.156;2023-04-02T02:06:15;1.33;;;1.33;;
8435;SDS011;4255;48.730;9.156;2023-04-02T02:11:28;1.60;;;1.25;;
8435;SDS011;4255;48.730;9.156;2023-04-02T02:13:56;1.20;;;1.20;;
8435;SDS011;4255;48.730;9.156;2023-04-02T02:16:30;1.77;;;1.67;;
8435;SDS011;4255;48.730;9.156;2023-04-02T02:19:05;1.50;;;1.40;;
8435;SDS011;4255;48.730;9.156;2023-04-02T02:21:38;1.50;;;1.40;;
8435;SDS011;4255;48.730;9.156;2023-04-02T02:24:13;2.75;;;1.30;;
8435;SDS011;4255;48.730;9.156;2023-04-02T02:26:55;1.30;;;1.20;;
8435;SDS011;4255;48.730;9.156;2023-04-02T02:29:38;1.30;;;1.30;;
8435;SDS011;4255;48.730;9.156;2023-04-02T02:32:05;1.52;;;1.42;;
8435;SDS011;4255;48.730;9.156;2023-04-02T02:34:38;1.38;;;1.38;;
8435;SDS011;4255;48.730;9.156;2023-04-02T02:37:13;1.23;;;1.23;;
8435;SDS011;4255;48.730;9.156;2023-04-02T02:39:50;1.27;;;1.23;;
8435;SDS011;4255;48.730;9.156;2023-04-02T02:45:04;1.20;;;1.20;;
8435;SDS011;4255;48.730;9.156;2023-04-02T02:47:36;1.50;;;1.50;;
8435;SDS011;4255;48.730;9.156;2023-04-02T02:50:06;1.50;;;1.50;;
8435;SDS011;4255;48.730;9.156;2023-04-02T02:52:38;1.27;;;1.27;;
8435;SDS011;4255;48.730;9.156;2023-04-02T02:55:10;1.80;;;1.70;;
8435;SDS011;4255;48.730;9.156;2023-04-02T02:58:04;2.15;;;1.60;;
8435;SDS011;4255;48.730;9.156;2023-04-02T03:00:34;1.60;;;1.50;;
8435;SDS011;4255;48.730;9.156;2023-04-02T03:03:01;1.50;;;1.33;;
8435;SDS011;4255;48.730;9.156;2023-04-02T03:05:31;3.40;;;1.80;;
8435;SDS011;4255;48.730;9.156;2023-04-02T03:07:57;1.40;;;1.30;;
8435;SDS011;4255;48.730;9.156;2023-04-02T03:10:33;1.65;;;1.55;;
8435;SDS011;4255;48.730;9.156;2023-04-02T03:13:29;1.67;;;1.58;;
8435;SDS011;4255;48.730;9.156;2023-04-02T03:16:01;1.42;;;1.42;;
8435;SDS011;4255;48.730;9.156;2023-04-02T03:19:16;1.67;;;1.58;;
8435;SDS011;4255;48.730;9.156;2023-04-02T03:21:51;1.98;;;1.50;;
8435;SDS011;4255;48.730;9.156;2023-04-02T03:24:44;1.95;;;1.70;;
8435;SDS011;4255;48.730;9.156;2023-04-02T03:27:31;1.30;;;1.20;;
8435;SDS011;4255;48.730;9.156;2023-04-02T03:32:44;2.15;;;1.58;;
8435;SDS011;4255;48.730;9.156;2023-04-02T03:43:39;1.60;;;1.50;;
8435;SDS011;4255;48.730;9.156;2023-04-02T03:46:12;1.70;;;1.30;;
8435;SDS011;4255;48.730;9.156;2023-04-02T03:48:49;1.40;;;1.40;;
8435;SDS011;4255;48.730;9.156;2023-04-02T03:53:56;1.58;;;1.48;;
8435;SDS011;4255;48.730;9.156;2023-04-02T03:56:28;1.40;;;1.40;;
8435;SDS011;4255;48.730;9.156;2023-04-02T03:59:01;2.00;;;1.40;;
8435;SDS011;4255;48.730;9.156;2023-04-02T04:01:50;1.77;;;1.50;;
8435;SDS011;4255;48.730;9.156;2023-04-02T04:04:22;2.13;;;1.75;;
8435;SDS011;4255;48.730;9.156;2023-04-02T04:06:51;1.77;;;1.60;;
8435;SDS011;4255;48.730;9.156;2023-04-02T04:09:34;1.98;;;1.20;;
8435;SDS011;4255;48.730;9.156;2023-04-02T04:12:11;1.40;;;1.40;;
8435;SDS011;4255;48.730;9.156;2023-04-02T04:14:41;1.55;;;1.45;;
8435;SDS011;4255;48.730;9.156;2023-04-02T04:17:14;1.50;;;1.40;;
8435;SDS011;4255;48.730;9.156;2023-04-02T04:22:41;1.90;;;1.80;;
8435;SDS011;4255;48.730;9.156;2023-04-02T04:25:16;1.53;;;1.43;;
8435;SDS011;4255;48.730;9.156;2023-04-02T04:28:00;1.70;;;1.60;;
8435;SDS011;4255;48.730;9.156;2023-04-02T04:30:51;1.48;;;1.38;;
8435;SDS011;4255;48.730;9.156;2023-04-02T04:33:26;2.95;;;1.60;;
8435;SDS011;4255;48.730;9.156;2023-04-02T04:36:03;1.70;;;1.60;;
8435;SDS011;4255;48.730;9.156;2023-04-02T04:38:44;2.58;;;1.95;;
8435;SDS011;4255;48.730;9.156;2023-04-02T04:41:30;1.52;;;1.42;;
8435;SDS011;4255;48.730;9.156;2023-04-02T04:44:18;2.35;;;1.60;;
8435;SDS011;4255;48.730;9.156;2023-04-02T04:49:24;4.07;;;1.70;;
8435;SDS011;4255;48.730;9.156;2023-04-02T04:54:24;2.03;;;1.93;;
8435;SDS011;4255;48.730;9.156;2023-04-02T04:56:54;2.20;;;1.60;;
8435;SDS011;4255;48.730;9.156;2023-04-02T04:59:24;1.90;;;1.80;;
8435;SDS011;4255;48.730;9.156;2023-04-02T05:04:47;2.00;;;1.90;;
8435;SDS011;4255;48.730;9.156;2023-04-02T05:07:22;1.77;;;1.67;;
8435;SDS011;4255;48.730;9.156;2023-04-02T05:17:47;2.88;;;2.63;;
8435;SDS011;4255;48.730;9.156;2023-04-02T05:20:20;2.30;;;2.20;;
8435;SDS011;4255;48.730;9.156;2023-04-02T05:25:27;3.05;;;2.60;;
8435;SDS011;4255;48.730;9.156;2023-04-02T05:33:17;2.20;;;2.10;;
8435;SDS011;4255;48.730;9.156;2023-04-02T05:35:50;4.70;;;2.33;;
8435;SDS011;4255;48.730;9.156;2023-04-02T05:38:25;3.40;;;2.10;;
8435;SDS011;4255;48.730;9.156;2023-04-02T05:40:57;2.60;;;2.40;;
8435;SDS011;4255;48.730;9.156;2023-04-02T05:43:30;2.17;;;1.98;;
8435;SDS011;4255;48.730;9.156;2023-04-02T05:45:59;2.33;;;2.22;;
8435;SDS011;4255;48.730;9.156;2023-04-02T05:48:35;2.45;;;2.25;;
8435;SDS011;4255;48.730;9.156;2023-04-02T05:51:04;2.05;;;1.95;;
8435;SDS011;4255;48.730;9.156;2023-04-02T06:06:57;3.03;;;2.55;;
8435;SDS011;4255;48.730;9.156;2023-04-02T06:15:00;2.85;;;1.95;;
8435;SDS011;4255;48.730;9.156;2023-04-02T06:17:26;2.35;;;2.25;;
8435;SDS011;4255;48.730;9.156;2023-04-02T06:19:52;3.17;;;2.27;;
8435;SDS011;4255;48.730;9.156;2023-04-02T06:24:59;2.88;;;2.65;;
8435;SDS011;4255;48.730;9.156;2023-04-02T06:27:29;2.65;;;2.40;;
8435;SDS011;4255;48.730;9.156;2023-04-02T06:29:58;2.35;;;2.25;;
8435;SDS011;4255;48.730;9.156;2023-04-02T06:32:27;2.45;;;2.25;;
8435;SDS011;4255;48.730;9.156;2023-04-02T06:34:52;2.20;;;2.10;;
8435;SDS011;4255;48.730;9.156;2023-04-02T06:37:32;2.53;;;2.33;;
8435;SDS011;4255;48.730;9.156;2023-04-02T06:40:04;5.35;;;2.97;;
8435;SDS011;4255;48.730;9.156;2023-04-02T06:42:50;3.97;;;2.47;;
8435;SDS011;4255;48.730;9.156;2023-04-02T06:45:23;2.50;;;2.38;;
8435;SDS011;4255;48.730;9.156;2023-04-02T06:47:53;3.67;;;2.80;;
8435;SDS011;4255;48.730;9.156;2023-04-02T06:50:25;6.22;;;4.65;;
8435;SDS011;4255;48.730;9.156;2023-04-02T06:52:55;3.30;;;2.90;;
8435;SDS011;4255;48.730;9.156;2023-04-02T06:58:16;5.00;;;3.78;;
8435;SDS011;4255;48.730;9.156;2023-04-02T07:00:44;4.15;;;3.10;;
8435;SDS011;4255;48.730;9.156;2023-04-02T07:03:23;3.47;;;2.20;;
8435;SDS011;4255;48.730;9.156;2023-04-02T07:05:51;2.30;;;1.98;;
8435;SDS011;4255;48.730;9.156;2023-04-02T07:08:17;5.50;;;3.67;;
8435;SDS011;4255;48.730;9.156;2023-04-02T07:10:43;3.30;;;3.00;;
8435;SDS011;4255;48.730;9.156;2023-04-02T07:13:13;2.47;;;2.27;;
8435;SDS011;4255;48.730;9.156;2023-04-02T07:15:40;7.78;;;5.30;;
8435;SDS011;4255;48.730;9.156;2023-04-02T07:18:08;5.65;;;4.28;;
8435;SDS011;4255;48.730;9.156;2023-04-02T07:20:55;4.25;;;3.60;;
8435;SDS011;4255;48.730;9.156;2023-04-02T07:23:21;2.50;;;2.00;;
8435;SDS011;4255;48.730;9.156;2023-04-02T07:25:50;4.60;;;2.30;;
8435;SDS011;4255;48.730;9.156;2023-04-02T07:28:17;2.22;;;2.03;;
8435;SDS011;4255;48.730;9.156;2023-04-02T07:30:43;2.28;;;2.08;;
8435;SDS011;4255;48.730;9.156;2023-04-02T07:33:13;6.90;;;2.30;;
8435;SDS011;4255;48.730;9.156;2023-04-02T07:35:40;1.90;;;1.80;;
8435;SDS011;4255;48.730;9.156;2023-04-02T07:38:06;2.23;;;2.00;;
8435;SDS011;4255;48.730;9.156;2023-04-02T07:40:32;1.80;;;1.70;;
8435;SDS011;4255;48.730;9.156;2023-04-02T07:42:58;6.53;;;2.50;;
8435;SDS011;4255;48.730;9.156;2023-04-02T07:45:24;2.00;;;1.90;;
8435;SDS011;4255;48.730;9.156;2023-04-02T07:47:49;2.80;;;2.30;;
8435;SDS011;4255;48.730;9.156;2023-04-02T07:50:15;2.60;;;2.23;;
8435;SDS011;4255;48.730;9.156;2023-04-02T07:52:42;2.30;;;2.20;;
8435;SDS011;4255;48.730;9.156;2023-04-02T07:55:11;2.90;;;2.17;;
8435;SDS011;4255;48.730;9.156;2023-04-02T07:57:39;2.22;;;2.08;;
8435;SDS011;4255;48.730;9.156;2023-04-02T08:00:15;2.30;;;2.05;;
8435;SDS011;4255;48.730;9.156;2023-04-02T08:02:41;5.05;;;1.90;;
8435;SDS011;4255;48.730;9.156;2023-04-02T08:05:07;1.80;;;1.67;;
8435;SDS011;4255;48.730;9.156;2023-04-02T08:07:34;2.42;;;1.60;;
8435;SDS011;4255;48.730;9.156;2023-04-02T08:10:00;1.40;;;1.30;;
8435;SDS011;4255;48.730;9.156;2023-04-02T08:12:27;1.60;;;1.50;;
8435;SDS011;4255;48.730;9.156;2023-04-02T08:14:53;4.30;;;1.80;;
8435;SDS011;4255;48.730;9.156;2023-04-02T08:17:18;2.00;;;1.80;;
8435;SDS011;4255;48.730;9.156;2023-04-02T08:19:44;1.83;;;1.50;;
8435;SDS011;4255;48.730;9.156;2023-04-02T08:22:10;1.87;;;1.77;;
8435;SDS011;4255;48.730;9.156;2023-04-02T08:24:35;2.30;;;1.73;;
8435;SDS011;4255;48.730;9.156;2023-04-02T08:27:01;1.60;;;1.50;;
8435;SDS011;4255;48.730;9.156;2023-04-02T08:29:27;3.30;;;1.53;;
8435;SDS011;4255;48.730;9.156;2023-04-02T08:31:56;1.60;;;1.50;;
8435;SDS011;4255;48.730;9.156;2023-04-02T08:34:26;5.22;;;1.83;;
8435;SDS011;4255;48.730;9.156;2023-04-02T08:36:56;1.50;;;1.40;;
8435;SDS011;4255;48.730;9.156;2023-04-02T08:39:23;2.55;;;1.70;;
8435;SDS011;4255;48.730;9.156;2023-04-02T08:44:31;2.55;;;2.35;;
8435;SDS011;4255;48.730;9.156;2023-04-02T08:47:09;2.67;;;2.13;;
8435;SDS011;4255;48.730;9.156;2023-04-02T08:49:42;1.60;;;1.50;;
8435;SDS011;4255;48.730;9.156;2023-04-02T08:52:25;4.25;;;1.90;;
8435;SDS011;4255;48.730;9.156;2023-04-02T08:54:56;2.22;;;1.58;;
8435;SDS011;4255;48.730;9.156;2023-04-02T09:02:48;1.40;;;1.30;;
8435;SDS011;4255;48.730;9.156;2023-04-02T09:05:25;2.85;;;1.80;;
8435;SDS011;4255;48.730;9.156;2023-04-02T09:07:54;1.80;;;1.55;;
8435;SDS011;4255;48.730;9.156;2023-04-02T09:10:22;1.50;;;1.40;;
8435;SDS011;4255;48.730;9.156;2023-04-02T09:13:01;1.50;;;1.40;;
8435;SDS011;4255;48.730;9.156;2023-04-02T09:15:33;1.60;;;1.50;;
8435;SDS011;4255;48.730;9.156;2023-04-02T09:18:05;1.40;;;1.30;;
8435;SDS011;4255;48.730;9.156;2023-04-02T09:20:41;3.00;;;1.75;;
8435;SDS011;4255;48.730;9.156;2023-04-02T09:23:14;3.87;;;2.37;;
8435;SDS011;4255;48.730;9.156;2023-04-02T09:25:45;1.95;;;1.85;;
8435;SDS011;4255;48.730;9.156;2023-04-02T09:28:12;1.80;;;1.70;;
8435;SDS011;4255;48.730;9.156;2023-04-02T09:33:45;1.70;;;1.60;;
8435;SDS011;4255;48.730;9.156;2023-04-02T09:36:16;2.83;;;1.70;;
8435;SDS011;4255;48.730;9.156;2023-04-02T09:38:58;3.17;;;1.88;;
8435;SDS011;4255;48.730;9.156;2023-04-02T09:41:30;2.30;;;2.10;;
8435;SDS011;4255;48.730;9.156;2023-04-02T09:44:18;1.70;;;1.60;;
8435;SDS011;4255;48.730;9.156;2023-04-02T09:46:47;1.80;;;1.70;;
8435;SDS011;4255;48.730;9.156;2023-04-02T09:49:24;2.40;;;2.20;;
8435;SDS011;4255;48.730;9.156;2023-04-02T09:54:30;1.67;;;1.58;;
8435;SDS011;4255;48.730;9.156;2023-04-02T09:57:00;1.90;;;1.80;;
8435;SDS011;4255;48.730;9.156;2023-04-02T09:59:27;2.15;;;2.00;;
8435;SDS011;4255;48.730;9.156;2023-04-02T10:09:57;1.90;;;1.80;;
8435;SDS011;4255;48.730;9.156;2023-04-02T10:12:24;2.45;;;2.25;;
8435;SDS011;4255;48.730;9.156;2023-04-02T10:14:53;2.20;;;2.10;;
8435;SDS011;4255;48.730;9.156;2023-04-02T10:17:22;2.03;;;1.92;;
8435;SDS011;4255;48.730;9.156;2023-04-02T10:19:58;2.90;;;2.60;;
8435;SDS011;4255;48.730;9.156;2023-04-02T10:22:46;2.83;;;2.65;;
8435;SDS011;4255;48.730;9.156;2023-04-02T10:25:15;1.73;;;1.63;;
8435;SDS011;4255;48.730;9.156;2023-04-02T10:27:48;2.20;;;2.00;;
8435;SDS011;4255;48.730;9.156;2023-04-02T10:32:58;2.25;;;2.05;;
8435;SDS011;4255;48.730;9.156;2023-04-02T10:35:37;1.90;;;1.80;;
8435;SDS011;4255;48.730;9.156;2023-04-02T10:41:00;5.25;;;2.95;;
8435;SDS011;4255;48.730;9.156;2023-04-02T10:46:31;3.17;;;1.60;;
8435;SDS011;4255;48.730;9.156;2023-04-02T10:49:26;1.85;;;1.75;;
8435;SDS011;4255;48.730;9.156;2023-04-02T10:57:34;2.75;;;1.80;;
8435;SDS011;4255;48.730;9.156;2023-04-02T11:02:55;4.68;;;1.85;;
8435;SDS011;4255;48.730;9.156;2023-04-02T11:05:42;3.30;;;1.88;;
8435;SDS011;4255;48.730;9.156;2023-04-02T11:08:17;5.05;;;2.38;;
8435;SDS011;4255;48.730;9.156;2023-04-02T11:11:07;1.60;;;1.52;;
8435;SDS011;4255;48.730;9.156;2023-04-02T11:16:23;8.50;;;1.88;;
8435;SDS011;4255;48.730;9.156;2023-04-02T11:21:52;1.98;;;1.60;;
8435;SDS011;4255;48.730;9.156;2023-04-02T11:24:41;1.63;;;1.52;;
8435;SDS011;4255;48.730;9.156;2023-04-02T11:32:28;1.50;;;1.40;;
8435;SDS011;4255;48.730;9.156;2023-04-02T11:37:31;1.80;;;1.70;;
8435;SDS011;4255;48.730;9.156;2023-04-02T11:50:35;1.80;;;1.70;;
8435;SDS011;4255;48.730;9.156;2023-04-02T12:09:33;4.10;;;1.80;;
8435;SDS011;4255;48.730;9.156;2023-04-02T12:15:06;1.50;;;1.40;;
8435;SDS011;4255;48.730;9.156;2023-04-02T12:18:31;2.70;;;1.60;;
8435;SDS011;4255;48.730;9.156;2023-04-02T12:20:54;1.30;;;1.20;;
8435;SDS011;4255;48.730;9.156;2023-04-02T12:23:21;1.47;;;1.37;;
8435;SDS011;4255;48.730;9.156;2023-04-02T12:25:55;1.40;;;1.40;;
8435;SDS011;4255;48.730;9.156;2023-04-02T12:28:31;1.20;;;1.20;;
8435;SDS011;4255;48.730;9.156;2023-04-02T12:33:37;2.03;;;1.93;;
8435;SDS011;4255;48.730;9.156;2023-04-02T12:36:05;2.70;;;1.37;;
8435;SDS011;4255;48.730;9.156;2023-04-02T12:38:48;1.10;;;1.10;;
8435;SDS011;4255;48.730;9.156;2023-04-02T12:43:55;1.30;;;1.20;;
8435;SDS011;4255;48.730;9.156;2023-04-02T12:46:28;1.30;;;1.20;;
8435;SDS011;4255;48.730;9.156;2023-04-02T12:49:42;1.10;;;1.10;;
8435;SDS011;4255;48.730;9.156;2023-04-02T12:52:01;1.20;;;0.97;;
8435;SDS011;4255;48.730;9.156;2023-04-02T12:54:28;1.00;;;1.00;;
8435;SDS011;4255;48.730;9.156;2023-04-02T13:02:46;1.10;;;1.10;;
8435;SDS011;4255;48.730;9.156;2023-04-02T13:05:30;1.20;;;1.10;;
8435;SDS011;4255;48.730;9.156;2023-04-02T13:08:41;1.17;;;1.07;;
8435;SDS011;4255;48.730;9.156;2023-04-02T13:11:04;1.10;;;1.10;;
8435;SDS011;4255;48.730;9.156;2023-04-02T13:13:31;1.20;;;1.10;;
8435;SDS011;4255;48.730;9.156;2023-04-02T13:16:04;1.00;;;1.00;;
8435;SDS011;4255;48.730;9.156;2023-04-02T13:18:31;1.33;;;1.23;;
8435;SDS011;4255;48.730;9.156;2023-04-02T13:21:02;1.43;;;1.40;;
8435;SDS011;4255;48.730;9.156;2023-04-02T13:23:54;1.57;;;1.47;;
8435;SDS011;4255;48.730;9.156;2023-04-02T13:31:43;1.57;;;1.47;;
8435;SDS011;4255;48.730;9.156;2023-04-02T13:34:09;1.50;;;1.40;;
8435;SDS011;4255;48.730;9.156;2023-04-02T13:36:34;1.77;;;1.67;;
8435;SDS011;4255;48.730;9.156;2023-04-02T13:39:01;1.97;;;1.50;;
8435;SDS011;4255;48.730;9.156;2023-04-02T13:41:29;1.50;;;1.40;;
8435;SDS011;4255;48.730;9.156;2023-04-02T13:43:58;1.58;;;1.48;;
8435;SDS011;4255;48.730;9.156;2023-04-02T13:46:27;1.40;;;1.40;;
8435;SDS011;4255;48.730;9.156;2023-04-02T13:48:55;2.10;;;2.00;;
8435;SDS011;4255;48.730;9.156;2023-04-02T13:51:23;4.77;;;2.47;;
8435;SDS011;4255;48.730;9.156;2023-04-02T13:53:56;2.63;;;2.50;;
8435;SDS011;4255;48.730;9.156;2023-04-02T13:56:22;3.15;;;2.95;;
8435;SDS011;4255;48.730;9.156;2023-04-02T13:58:49;3.60;;;3.28;;
8435;SDS011;4255;48.730;9.156;2023-04-02T14:01:18;3.97;;;3.58;;
8435;SDS011;4255;48.730;9.156;2023-04-02T14:03:46;4.72;;;4.43;;
8435;SDS011;4255;48.730;9.156;2023-04-02T14:06:15;3.63;;;3.43;;
8435;SDS011;4255;48.730;9.156;2023-04-02T14:19:57;3.35;;;3.15;;
8435;SDS011;4255;48.730;9.156;2023-04-02T14:25:20;2.80;;;2.58;;
8435;SDS011;4255;48.730;9.156;2023-04-02T14:28:05;3.47;;;3.15;;
8435;SDS011;4255;48.730;9.156;2023-04-02T14:36:11;3.53;;;3.33;;
8435;SDS011;4255;48.730;9.156;2023-04-02T14:44:05;6.50;;;3.47;;
8435;SDS011;4255;48.730;9.156;2023-04-02T14:46:32;4.65;;;4.30;;
8435;SDS011;4255;48.730;9.156;2023-04-02T14:57:06;4.22;;;3.92;;
8435;SDS011;4255;48.730;9.156;2023-04-02T15:00:00;4.20;;;3.90;;
8435;SDS011;4255;48.730;9.156;2023-04-02T15:02:54;5.15;;;4.65;;
8435;SDS011;4255;48.730;9.156;2023-04-02T15:05:44;9.57;;;5.38;;
8435;SDS011;4255;48.730;9.156;2023-04-02T15:08:23;5.40;;;5.00;;
8435;SDS011;4255;48.730;9.156;2023-04-02T15:10:57;5.53;;;5.05;;
8435;SDS011;4255;48.730;9.156;2023-04-02T15:13:30;4.47;;;4.13;;
8435;SDS011;4255;48.730;9.156;2023-04-02T15:16:04;5.13;;;4.63;;
8435;SDS011;4255;48.730;9.156;2023-04-02T15:18:35;5.75;;;5.25;;
8435;SDS011;4255;48.730;9.156;2023-04-02T15:26:29;3.95;;;3.65;;
8435;SDS011;4255;48.730;9.156;2023-04-02T15:29:17;4.70;;;4.30;;
8435;SDS011;4255;48.730;9.156;2023-04-02T15:31:45;4.43;;;4.13;;
8435;SDS011;4255;48.730;9.156;2023-04-02T15:34:16;4.70;;;4.30;;
8435;SDS011;4255;48.730;9.156;2023-04-02T15:39:40;5.15;;;4.75;;
8435;SDS011;4255;48.730;9.156;2023-04-02T15:42:24;4.30;;;4.00;;
8435;SDS011;4255;48.730;9.156;2023-04-02T15:50:36;4.57;;;4.15;;
8435;SDS011;4255;48.730;9.156;2023-04-02T15:53:07;4.28;;;3.95;;
8435;SDS011;4255;48.730;9.156;2023-04-02T16:04:44;4.45;;;4.10;;
8435;SDS011;4255;48.730;9.156;2023-04-02T16:10:17;3.47;;;3.25;;
8435;SDS011;4255;48.730;9.156;2023-04-02T16:12:48;4.32;;;3.95;;
8435;SDS011;4255;48.730;9.156;2023-04-02T16:15:17;3.55;;;3.25;;
8435;SDS011;4255;48.730;9.156;2023-04-02T16:17:50;4.20;;;3.90;;
8435;SDS011;4255;48.730;9.156;2023-04-02T16:20:35;4.22;;;3.92;;
8435;SDS011;4255;48.730;9.156;2023-04-02T16:23:10;4.93;;;4.13;;
8435;SDS011;4255;48.730;9.156;2023-04-02T16:25:44;4.40;;;4.10;;
8435;SDS011;4255;48.730;9.156;2023-04-02T16:28:50;4.63;;;4.32;;
8435;SDS011;4255;48.730;9.156;2023-04-02T16:31:24;4.95;;;4.55;;
8435;SDS011;4255;48.730;9.156;2023-04-02T16:37:13;5.25;;;4.60;;
8435;SDS011;4255;48.730;9.156;2023-04-02T16:45:41;4.28;;;3.97;;
8435;SDS011;4255;48.730;9.156;2023-04-02T16:48:33;4.82;;;4.32;;
8435;SDS011;4255;48.730;9.156;2023-04-02T16:54:07;7.70;;;5.57;;
8435;SDS011;4255;48.730;9.156;2023-04-02T17:00:00;6.90;;;6.28;;
8435;SDS011;4255;48.730;9.156;2023-04-02T17:08:26;5.80;;;5.40;;
8435;SDS011;4255;48.730;9.156;2023-04-02T17:16:00;5.97;;;5.50;;
8435;SDS011;4255;48.730;9.156;2023-04-02T17:18:30;6.72;;;6.07;;
8435;SDS011;4255;48.730;9.156;2023-04-02T17:20:59;5.30;;;4.80;;
8435;SDS011;4255;48.730;9.156;2023-04-02T17:23:28;6.05;;;5.53;;
8435;SDS011;4255;48.730;9.156;2023-04-02T17:25:59;5.50;;;5.10;;
8435;SDS011;4255;48.730;9.156;2023-04-02T17:28:30;4.63;;;4.32;;
8435;SDS011;4255;48.730;9.156;2023-04-02T17:31:02;5.40;;;4.53;;
8435;SDS011;4255;48.730;9.156;2023-04-02T17:33:37;4.60;;;4.20;;
8435;SDS011;4255;48.730;9.156;2023-04-02T17:43:56;5.05;;;4.65;;
8435;SDS011;4255;48.730;9.156;2023-04-02T17:49:10;6.32;;;5.93;;
8435;SDS011;4255;48.730;9.156;2023-04-02T17:54:35;16.85;;;5.97;;
8435;SDS011;4255;48.730;9.156;2023-04-02T18:02:56;4.55;;;4.25;;
8435;SDS011;4255;48.730;9.156;2023-04-02T18:05:29;8.00;;;5.88;;
8435;SDS011;4255;48.730;9.156;2023-04-02T18:08:18;6.22;;;5.63;;
8435;SDS011;4255;48.730;9.156;2023-04-02T18:13:54;7.03;;;6.43;;
8435;SDS011;4255;48.730;9.156;2023-04-02T18:19:23;11.77;;;5.95;;
8435;SDS011;4255;48.730;9.156;2023-04-02T18:32:45;7.40;;;6.72;;
8435;SDS011;4255;48.730;9.156;2023-04-02T18:35:14;6.93;;;6.22;;
8435;SDS011;4255;48.730;9.156;2023-04-02T18:40:37;6.53;;;5.93;;
8435;SDS011;4255;48.730;9.156;2023-04-02T18:46:41;7.68;;;7.03;;
8435;SDS011;4255;48.730;9.156;2023-04-02T18:49:27;7.25;;;6.55;;
8435;SDS011;4255;48.730;9.156;2023-04-02T18:52:10;6.53;;;5.93;;
8435;SDS011;4255;48.730;9.156;2023-04-02T18:54:40;11.70;;;7.13;;
8435;SDS011;4255;48.730;9.156;2023-04-02T18:57:11;7.20;;;6.47;;
8435;SDS011;4255;48.730;9.156;2023-04-02T18:59:41;10.63;;;6.38;;
8435;SDS011;4255;48.730;9.156;2023-04-02T19:02:17;8.35;;;7.40;;
8435;SDS011;4255;48.730;9.156;2023-04-02T19:05:37;7.53;;;6.82;;
8435;SDS011;4255;48.730;9.156;2023-04-02T19:07:47;8.00;;;7.15;;
8435;SDS011;4255;48.730;9.156;2023-04-02T19:13:15;10.05;;;8.02;;
8435;SDS011;4255;48.730;9.156;2023-04-02T19:18:29;9.18;;;7.65;;
8435;SDS011;4255;48.730;9.156;2023-04-02T19:23:52;12.32;;;7.43;;
8435;SDS011;4255;48.730;9.156;2023-04-02T19:26:33;7.90;;;6.65;;
8435;SDS011;4255;48.730;9.156;2023-04-02T19:34:34;7.65;;;6.95;;
8435;SDS011;4255;48.730;9.156;2023-04-02T19:37:06;7.45;;;6.75;;
8435;SDS011;4255;48.730;9.156;2023-04-02T19:47:55;6.80;;;6.20;;
8435;SDS011;4255;48.730;9.156;2023-04-02T19:50:24;8.40;;;7.55;;
8435;SDS011;4255;48.730;9.156;2023-04-02T19:52:50;6.77;;;6.17;;
8435;SDS011;4255;48.730;9.156;2023-04-02T19:55:15;7.87;;;7.27;;
8435;SDS011;4255;48.730;9.156;2023-04-02T19:57:41;5.70;;;5.23;;
8435;SDS011;4255;48.730;9.156;2023-04-02T20:00:09;6.40;;;5.70;;
8435;SDS011;4255;48.730;9.156;2023-04-02T20:02:36;4.95;;;4.55;;
8435;SDS011;4255;48.730;9.156;2023-04-02T20:05:01;5.97;;;5.47;;
8435;SDS011;4255;48.730;9.156;2023-04-02T20:07:29;5.83;;;5.37;;
8435;SDS011;4255;48.730;9.156;2023-04-02T20:09:55;6.20;;;5.70;;
8435;SDS011;4255;48.730;9.156;2023-04-02T20:12:20;6.87;;;5.63;;
8435;SDS011;4255;48.730;9.156;2023-04-02T20:14:46;7.40;;;6.70;;
8435;SDS011;4255;48.730;9.156;2023-04-02T20:17:11;5.60;;;5.07;;
8435;SDS011;4255;48.730;9.156;2023-04-02T20:19:37;6.03;;;5.53;;
8435;SDS011;4255;48.730;9.156;2023-04-02T20:22:02;6.63;;;5.83;;
8435;SDS011;4255;48.730;9.156;2023-04-02T20:24:28;7.40;;;5.87;;
8435;SDS011;4255;48.730;9.156;2023-04-02T20:26:54;6.93;;;6.33;;
8435;SDS011;4255;48.730;9.156;2023-04-02T20:29:20;6.93;;;6.23;;
8435;SDS011;4255;48.730;9.156;2023-04-02T20:31:47;6.57;;;5.55;;
8435;SDS011;4255;48.730;9.156;2023-04-02T20:34:12;5.53;;;5.03;;
8435;SDS011;4255;48.730;9.156;2023-04-02T20:36:38;7.10;;;5.93;;
8435;SDS011;4255;48.730;9.156;2023-04-02T20:39:03;6.63;;;5.83;;
8435;SDS011;4255;48.730;9.156;2023-04-02T20:41:32;6.82;;;6.15;;
8435;SDS011;4255;48.730;9.156;2023-04-02T20:43:57;6.50;;;5.90;;
8435;SDS011;4255;48.730;9.156;2023-04-02T20:46:23;7.13;;;6.43;;
8435;SDS011;4255;48.730;9.156;2023-04-02T20:48:49;8.65;;;7.03;;
8435;SDS011;4255;48.730;9.156;2023-04-02T20:51:15;6.60;;;6.00;;
8435;SDS011;4255;48.730;9.156;2023-04-02T20:53:41;6.18;;;5.57;;
8435;SDS011;4255;48.730;9.156;2023-04-02T20:56:11;8.10;;;6.00;;
8435;SDS011;4255;48.730;9.156;2023-04-02T20:58:39;8.18;;;5.70;;
8435;SDS011;4255;48.730;9.156;2023-04-02T21:01:10;5.95;;;5.18;;
8435;SDS011;4255;48.730;9.156;2023-04-02T21:03:43;4.85;;;4.45;;
8435;SDS011;4255;48.730;9.156;2023-04-02T21:06:14;5.57;;;5.07;;
8435;SDS011;4255;48.730;9.156;2023-04-02T21:08:46;7.55;;;6.85;;
8435;SDS011;4255;48.730;9.156;2023-04-02T21:11:12;8.60;;;6.43;;
8435;SDS011;4255;48.730;9.156;2023-04-02T21:13:38;7.82;;;6.38;;
8435;SDS011;4255;48.730;9.156;2023-04-02T21:16:15;6.38;;;5.78;;
8435;SDS011;4255;48.730;9.156;2023-04-02T21:18:43;7.63;;;6.82;;
8435;SDS011;4255;48.730;9.156;2023-04-02T21:21:10;8.90;;;7.63;;
8435;SDS011;4255;48.730;9.156;2023-04-02T21:23:38;8.60;;;7.70;;
8435;SDS011;4255;48.730;9.156;2023-04-02T21:26:05;5.93;;;5.47;;
8435;SDS011;4255;48.730;9.156;2023-04-02T21:28:34;7.55;;;6.85;;
8435;SDS011;4255;48.730;9.156;2023-04-02T21:31:00;7.20;;;5.73;;
8435;SDS011;4255;48.730;9.156;2023-04-02T21:33:30;5.40;;;4.97;;